sensor_id;sensor_type;location;lat;lon;timestamp;pressure;altitude;pressure_sealevel;temperature;humidity
31299;BME280;17927;52.350;13.402;2022-10-26T00:00:41;101407.22;;;13.83;59.20
31299;BME280;17927;52.350;13.402;2022-10-26T00:03:06;101414.78;;;13.80;59.12
31299;BME280;17927;52.350;13.402;2022-10-26T00:05:32;101423.25;;;13.77;59.25
31299;BME280;17927;52.350;13.402;2022-10-26T00:07:58;101415.50;;;13.72;59.20
31299;BME280;17927;52.350;13.402;2022-10-26T00:10:23;101421.09;;;13.70;59.11
31299;BME280;17927;52.350;13.402;2022-10-26T00:12:49;101412.25;;;13.68;59.13
31299;BME280;17927;52.350;13.402;2022-10-26T00:15:16;101418.84;;;13.66;59.08
31299;BME280;17927;52.350;13.402;2022-10-26T00:17:41;101418.28;;;13.62;59.12
31299;BME280;17927;52.350;13.402;2022-10-26T00:20:06;101426.72;;;13.59;58.84
31299;BME280;17927;52.350;13.402;2022-10-26T00:22:32;101422.28;;;13.58;58.79
31299;BME280;17927;52.350;13.402;2022-10-26T00:24:57;101422.41;;;13.57;58.91
31299;BME280;17927;52.350;13.402;2022-10-26T00:27:22;101428.84;;;13.55;58.87
31299;BME280;17927;52.350;13.402;2022-10-26T00:29:48;101430.72;;;13.55;58.63
31299;BME280;17927;52.350;13.402;2022-10-26T00:32:13;101431.00;;;13.52;58.81
31299;BME280;17927;52.350;13.402;2022-10-26T00:34:38;101439.31;;;13.50;58.50
31299;BME280;17927;52.350;13.402;2022-10-26T00:37:03;101442.31;;;13.47;58.76
31299;BME280;17927;52.350;13.402;2022-10-26T00:39:28;101444.31;;;13.45;58.90
31299;BME280;17927;52.350;13.402;2022-10-26T00:41:54;101440.75;;;13.45;58.82
31299;BME280;17927;52.350;13.402;2022-10-26T00:47:26;101438.31;;;13.42;59.06
31299;BME280;17927;52.350;13.402;2022-10-26T00:49:53;101431.19;;;13.40;59.24
31299;BME280;17927;52.350;13.402;2022-10-26T00:52:21;101441.75;;;13.44;59.11
31299;BME280;17927;52.350;13.402;2022-10-26T00:54:47;101434.72;;;13.41;58.91
31299;BME280;17927;52.350;13.402;2022-10-26T00:57:13;101432.13;;;13.39;58.92
31299;BME280;17927;52.350;13.402;2022-10-26T00:59:40;101430.44;;;13.38;58.91
31299;BME280;17927;52.350;13.402;2022-10-26T01:02:06;101437.84;;;13.36;58.96
31299;BME280;17927;52.350;13.402;2022-10-26T01:04:33;101423.56;;;13.34;58.83
31299;BME280;17927;52.350;13.402;2022-10-26T01:07:00;101424.72;;;13.32;58.73
31299;BME280;17927;52.350;13.402;2022-10-26T01:09:27;101427.59;;;13.30;58.63
31299;BME280;17927;52.350;13.402;2022-10-26T01:11:53;101430.44;;;13.29;58.75
31299;BME280;17927;52.350;13.402;2022-10-26T01:14:18;101430.03;;;13.23;58.59
31299;BME280;17927;52.350;13.402;2022-10-26T01:19:49;101423.44;;;13.16;58.99
31299;BME280;17927;52.350;13.402;2022-10-26T01:22:33;101420.19;;;13.13;58.94
31299;BME280;17927;52.350;13.402;2022-10-26T01:25:21;101423.59;;;13.15;59.18
31299;BME280;17927;52.350;13.402;2022-10-26T01:27:51;101416.59;;;13.12;59.06
31299;BME280;17927;52.350;13.402;2022-10-26T01:30:25;101411.16;;;13.12;59.30
31299;BME280;17927;52.350;13.402;2022-10-26T01:33:17;101410.31;;;13.12;59.21
31299;BME280;17927;52.350;13.402;2022-10-26T01:35:53;101406.03;;;13.09;59.16
31299;BME280;17927;52.350;13.402;2022-10-26T01:38:46;101406.03;;;13.09;59.13
31299;BME280;17927;52.350;13.402;2022-10-26T01:41:36;101409.06;;;13.06;58.89
31299;BME280;17927;52.350;13.402;2022-10-26T01:44:16;101404.91;;;13.02;59.03
31299;BME280;17927;52.350;13.402;2022-10-26T01:46:44;101403.19;;;13.01;58.93
31299;BME280;17927;52.350;13.402;2022-10-26T01:49:12;101412.31;;;13.00;58.88
31299;BME280;17927;52.350;13.402;2022-10-26T01:51:40;101406.19;;;12.98;58.93
31299;BME280;17927;52.350;13.402;2022-10-26T01:54:06;101408.06;;;12.97;58.96
31299;BME280;17927;52.350;13.402;2022-10-26T01:56:35;101407.19;;;12.97;58.96
31299;BME280;17927;52.350;13.402;2022-10-26T01:59:24;101398.47;;;12.83;59.02
31299;BME280;17927;52.350;13.402;2022-10-26T02:02:17;101400.19;;;12.84;58.94
31299;BME280;17927;52.350;13.402;2022-10-26T02:05:03;101411.03;;;12.84;59.03
31299;BME280;17927;52.350;13.402;2022-10-26T02:07:54;101401.03;;;12.85;59.22
31299;BME280;17927;52.350;13.402;2022-10-26T02:10:29;101392.06;;;12.84;59.21
31299;BME280;17927;52.350;13.402;2022-10-26T02:12:59;101393.63;;;12.87;59.41
31299;BME280;17927;52.350;13.402;2022-10-26T02:18:13;101403.75;;;12.85;59.24
31299;BME280;17927;52.350;13.402;2022-10-26T02:20:44;101406.75;;;12.82;59.25
31299;BME280;17927;52.350;13.402;2022-10-26T02:23:13;101407.75;;;12.81;59.13
31299;BME280;17927;52.350;13.402;2022-10-26T02:25:43;101411.59;;;12.78;59.15
31299;BME280;17927;52.350;13.402;2022-10-26T02:28:11;101400.44;;;12.61;59.08
31299;BME280;17927;52.350;13.402;2022-10-26T02:30:38;101396.88;;;12.61;59.23
31299;BME280;17927;52.350;13.402;2022-10-26T02:33:06;101400.44;;;12.61;59.12
31299;BME280;17927;52.350;13.402;2022-10-26T02:35:35;101401.47;;;12.60;58.99
31299;BME280;17927;52.350;13.402;2022-10-26T02:38:08;101409.72;;;12.59;58.62
31299;BME280;17927;52.350;13.402;2022-10-26T02:40:34;101412.69;;;12.56;58.64
31299;BME280;17927;52.350;13.402;2022-10-26T02:43:09;101407.59;;;12.53;58.62
31299;BME280;17927;52.350;13.402;2022-10-26T02:45:40;101403.28;;;12.50;58.67
31299;BME280;17927;52.350;13.402;2022-10-26T02:48:07;101404.44;;;12.47;58.60
31299;BME280;17927;52.350;13.402;2022-10-26T02:50:42;101407.41;;;12.44;58.61
31299;BME280;17927;52.350;13.402;2022-10-26T02:53:34;101401.16;;;12.44;58.65
31299;BME280;17927;52.350;13.402;2022-10-26T02:56:08;101398.84;;;12.39;58.65
31299;BME280;17927;52.350;13.402;2022-10-26T02:58:39;101403.41;;;12.39;58.54
31299;BME280;17927;52.350;13.402;2022-10-26T03:01:08;101397.41;;;12.35;58.61
31299;BME280;17927;52.350;13.402;2022-10-26T03:03:33;101402.84;;;12.35;58.74
31299;BME280;17927;52.350;13.402;2022-10-26T03:05:59;101404.81;;;12.33;58.28
31299;BME280;17927;52.350;13.402;2022-10-26T03:08:24;101400.53;;;12.30;58.36
31299;BME280;17927;52.350;13.402;2022-10-26T03:10:49;101402.38;;;12.30;58.63
31299;BME280;17927;52.350;13.402;2022-10-26T03:13:14;101404.38;;;12.28;58.21
31299;BME280;17927;52.350;13.402;2022-10-26T03:15:40;101403.91;;;12.23;58.57
31299;BME280;17927;52.350;13.402;2022-10-26T03:18:05;101407.06;;;12.18;58.31
31299;BME280;17927;52.350;13.402;2022-10-26T03:20:31;101412.03;;;12.13;58.21
31299;BME280;17927;52.350;13.402;2022-10-26T03:22:56;101410.44;;;12.10;58.27
31299;BME280;17927;52.350;13.402;2022-10-26T03:25:25;101409.88;;;12.07;58.29
31299;BME280;17927;52.350;13.402;2022-10-26T03:27:58;101410.84;;;12.06;58.20
31299;BME280;17927;52.350;13.402;2022-10-26T03:30:23;101412.84;;;12.03;58.25
31299;BME280;17927;52.350;13.402;2022-10-26T03:32:49;101406.84;;;12.00;58.20
31299;BME280;17927;52.350;13.402;2022-10-26T03:35:14;101405.13;;;11.99;57.99
31299;BME280;17927;52.350;13.402;2022-10-26T03:37:39;101406.09;;;11.98;57.93
31299;BME280;17927;52.350;13.402;2022-10-26T03:40:05;101402.66;;;11.96;58.03
31299;BME280;17927;52.350;13.402;2022-10-26T03:42:37;101397.13;;;11.97;58.35
31299;BME280;17927;52.350;13.402;2022-10-26T03:45:03;101396.25;;;11.97;58.37
31299;BME280;17927;52.350;13.402;2022-10-26T03:47:29;101401.81;;;11.95;58.20
31299;BME280;17927;52.350;13.402;2022-10-26T03:49:54;101394.69;;;11.94;58.44
31299;BME280;17927;52.350;13.402;2022-10-26T03:52:19;101400.09;;;11.94;58.66
31299;BME280;17927;52.350;13.402;2022-10-26T03:54:45;101406.34;;;11.95;58.72
31299;BME280;17927;52.350;13.402;2022-10-26T03:57:10;101399.94;;;11.96;58.58
31299;BME280;17927;52.350;13.402;2022-10-26T03:59:35;101398.97;;;11.97;58.83
31299;BME280;17927;52.350;13.402;2022-10-26T04:02:01;101409.78;;;11.97;58.57
31299;BME280;17927;52.350;13.402;2022-10-26T04:04:26;101402.66;;;11.96;58.49
31299;BME280;17927;52.350;13.402;2022-10-26T04:06:52;101411.66;;;11.96;58.59
31299;BME280;17927;52.350;13.402;2022-10-26T04:09:17;101421.50;;;11.97;58.68
31299;BME280;17927;52.350;13.402;2022-10-26T04:11:42;101415.22;;;11.97;58.47
31299;BME280;17927;52.350;13.402;2022-10-26T04:14:07;101406.09;;;11.98;58.59
31299;BME280;17927;52.350;13.402;2022-10-26T04:16:33;101425.19;;;11.96;58.80
31299;BME280;17927;52.350;13.402;2022-10-26T04:18:58;101426.19;;;11.95;58.55
31299;BME280;17927;52.350;13.402;2022-10-26T04:21:23;101428.03;;;11.95;58.69
31299;BME280;17927;52.350;13.402;2022-10-26T04:23:48;101415.47;;;11.94;58.26
31299;BME280;17927;52.350;13.402;2022-10-26T04:26:14;101419.31;;;11.91;58.36
31299;BME280;17927;52.350;13.402;2022-10-26T04:28:39;101416.75;;;11.90;58.26
31299;BME280;17927;52.350;13.402;2022-10-26T04:31:04;101413.19;;;11.89;58.22
31299;BME280;17927;52.350;13.402;2022-10-26T04:33:29;101422.28;;;11.88;58.14
31299;BME280;17927;52.350;13.402;2022-10-26T04:35:58;101421.56;;;11.86;58.08
31299;BME280;17927;52.350;13.402;2022-10-26T04:38:25;101418.13;;;11.84;58.00
31299;BME280;17927;52.350;13.402;2022-10-26T04:40:50;101422.97;;;11.80;57.85
31299;BME280;17927;52.350;13.402;2022-10-26T04:43:15;101421.41;;;11.78;57.77
31299;BME280;17927;52.350;13.402;2022-10-26T04:45:41;101419.09;;;11.73;58.01
31299;BME280;17927;52.350;13.402;2022-10-26T04:48:09;101412.97;;;11.71;57.88
31299;BME280;17927;52.350;13.402;2022-10-26T04:50:35;101416.66;;;11.70;57.77
31299;BME280;17927;52.350;13.402;2022-10-26T04:53:00;101418.63;;;11.68;57.69
31299;BME280;17927;52.350;13.402;2022-10-26T04:55:25;101421.34;;;11.68;57.92
31299;BME280;17927;52.350;13.402;2022-10-26T04:57:51;101426.91;;;11.66;57.64
31299;BME280;17927;52.350;13.402;2022-10-26T05:00:16;101423.31;;;11.66;57.75
31299;BME280;17927;52.350;13.402;2022-10-26T05:02:41;101424.47;;;11.63;57.59
31299;BME280;17927;52.350;13.402;2022-10-26T05:05:07;101419.16;;;11.62;57.43
31299;BME280;17927;52.350;13.402;2022-10-26T05:07:32;101419.31;;;11.60;57.79
31299;BME280;17927;52.350;13.402;2022-10-26T05:09:58;101413.16;;;11.58;57.44
31299;BME280;17927;52.350;13.402;2022-10-26T05:12:23;101420.69;;;11.54;57.71
31299;BME280;17927;52.350;13.402;2022-10-26T05:14:48;101406.44;;;11.52;58.11
31299;BME280;17927;52.350;13.402;2022-10-26T05:17:13;101413.84;;;11.50;57.66
31299;BME280;17927;52.350;13.402;2022-10-26T05:19:39;101411.38;;;11.47;57.83
31299;BME280;17927;52.350;13.402;2022-10-26T05:22:04;101412.38;;;11.46;57.90
31299;BME280;17927;52.350;13.402;2022-10-26T05:24:30;101415.22;;;11.45;57.65
31299;BME280;17927;52.350;13.402;2022-10-26T05:26:55;101406.38;;;11.42;57.88
31299;BME280;17927;52.350;13.402;2022-10-26T05:29:20;101404.66;;;11.41;57.81
31299;BME280;17927;52.350;13.402;2022-10-26T05:31:45;101409.22;;;11.41;57.79
31299;BME280;17927;52.350;13.402;2022-10-26T05:34:11;101413.91;;;11.39;57.91
31299;BME280;17927;52.350;13.402;2022-10-26T05:36:36;101406.53;;;11.41;58.12
31299;BME280;17927;52.350;13.402;2022-10-26T05:39:02;101405.78;;;11.39;58.07
31299;BME280;17927;52.350;13.402;2022-10-26T05:41:27;101405.78;;;11.39;57.96
31299;BME280;17927;52.350;13.402;2022-10-26T05:43:52;101416.72;;;11.37;58.09
31299;BME280;17927;52.350;13.402;2022-10-26T05:46:18;101413.19;;;11.37;58.33
31299;BME280;17927;52.350;13.402;2022-10-26T05:48:43;101417.59;;;11.38;58.34
31299;BME280;17927;52.350;13.402;2022-10-26T05:51:08;101413.19;;;11.37;58.49
31299;BME280;17927;52.350;13.402;2022-10-26T05:53:34;101423.00;;;11.38;58.70
31299;BME280;17927;52.350;13.402;2022-10-26T05:56:00;101424.72;;;11.39;58.81
31299;BME280;17927;52.350;13.402;2022-10-26T05:58:25;101433.69;;;11.39;58.84
31299;BME280;17927;52.350;13.402;2022-10-26T06:06:28;101426.69;;;11.37;58.80
31299;BME280;17927;52.350;13.402;2022-10-26T06:08:53;101427.44;;;11.39;59.10
31299;BME280;17927;52.350;13.402;2022-10-26T06:11:19;101438.84;;;11.42;59.38
31299;BME280;17927;52.350;13.402;2022-10-26T06:13:44;101432.28;;;11.45;59.39
31299;BME280;17927;52.350;13.402;2022-10-26T06:19:02;101431.94;;;11.50;59.67
31299;BME280;17927;52.350;13.402;2022-10-26T06:21:43;101431.94;;;11.50;59.94
31299;BME280;17927;52.350;13.402;2022-10-26T06:24:21;101437.19;;;11.51;59.64
31299;BME280;17927;52.350;13.402;2022-10-26T06:29:45;101438.41;;;11.58;59.86
31299;BME280;17927;52.350;13.402;2022-10-26T06:32:15;101438.25;;;11.60;59.93
31299;BME280;17927;52.350;13.402;2022-10-26T06:34:45;101439.69;;;11.64;60.05
31299;BME280;17927;52.350;13.402;2022-10-26T06:37:12;101440.88;;;11.71;60.26
31299;BME280;17927;52.350;13.402;2022-10-26T06:39:42;101449.31;;;11.78;60.52
31299;BME280;17927;52.350;13.402;2022-10-26T06:42:09;101442.66;;;11.82;60.50
31299;BME280;17927;52.350;13.402;2022-10-26T06:44:36;101449.38;;;11.88;60.60
31299;BME280;17927;52.350;13.402;2022-10-26T06:47:21;101451.53;;;11.94;60.55
31299;BME280;17927;52.350;13.402;2022-10-26T06:50:17;101454.00;;;11.97;60.88
31299;BME280;17927;52.350;13.402;2022-10-26T06:52:52;101452.63;;;12.03;61.00
31299;BME280;17927;52.350;13.402;2022-10-26T06:55:22;101451.78;;;12.12;61.33
31299;BME280;17927;52.350;13.402;2022-10-26T06:57:48;101451.09;;;12.20;61.34
31299;BME280;17927;52.350;13.402;2022-10-26T07:00:18;101450.44;;;12.28;61.39
31299;BME280;17927;52.350;13.402;2022-10-26T07:02:44;101449.88;;;12.34;61.62
31299;BME280;17927;52.350;13.402;2022-10-26T07:05:09;101444.78;;;12.41;61.59
31299;BME280;17927;52.350;13.402;2022-10-26T07:07:39;101443.22;;;12.48;62.01
31299;BME280;17927;52.350;13.402;2022-10-26T07:10:06;101450.53;;;12.57;62.06
31299;BME280;17927;52.350;13.402;2022-10-26T07:12:31;101444.41;;;12.65;62.27
31299;BME280;17927;52.350;13.402;2022-10-26T07:14:56;101450.84;;;12.74;62.24
31299;BME280;17927;52.350;13.402;2022-10-26T07:17:22;101450.00;;;12.83;62.42
31299;BME280;17927;52.350;13.402;2022-10-26T07:19:47;101452.56;;;12.94;62.41
31299;BME280;17927;52.350;13.402;2022-10-26T07:22:13;101456.00;;;13.06;62.59
31299;BME280;17927;52.350;13.402;2022-10-26T07:24:38;101455.00;;;13.17;62.76
31299;BME280;17927;52.350;13.402;2022-10-26T07:27:04;101456.72;;;13.28;62.79
31299;BME280;17927;52.350;13.402;2022-10-26T07:29:29;101458.56;;;13.37;62.75
31299;BME280;17927;52.350;13.402;2022-10-26T07:31:54;101465.72;;;13.48;62.83
31299;BME280;17927;52.350;13.402;2022-10-26T07:34:19;101463.84;;;13.59;62.99
31299;BME280;17927;52.350;13.402;2022-10-26T07:36:45;101461.84;;;13.70;63.14
31299;BME280;17927;52.350;13.402;2022-10-26T07:39:10;101455.66;;;13.78;63.36
31299;BME280;17927;52.350;13.402;2022-10-26T07:41:35;101460.91;;;13.90;63.12
31299;BME280;17927;52.350;13.402;2022-10-26T07:44:00;101459.16;;;13.98;63.39
31299;BME280;17927;52.350;13.402;2022-10-26T07:46:26;101462.72;;;14.09;63.44
31299;BME280;17927;52.350;13.402;2022-10-26T07:48:51;101461.66;;;14.20;63.55
31299;BME280;17927;52.350;13.402;2022-10-26T07:51:17;101462.63;;;14.28;63.43
31299;BME280;17927;52.350;13.402;2022-10-26T07:53:42;101458.03;;;14.39;63.61
31299;BME280;17927;52.350;13.402;2022-10-26T07:56:08;101461.69;;;14.48;63.32
31299;BME280;17927;52.350;13.402;2022-10-26T07:58:34;101458.75;;;14.59;63.66
31299;BME280;17927;52.350;13.402;2022-10-26T08:01:08;101464.19;;;14.69;63.53
31299;BME280;17927;52.350;13.402;2022-10-26T08:03:33;101467.97;;;14.76;63.40
31299;BME280;17927;52.350;13.402;2022-10-26T08:05:59;101463.47;;;14.85;63.38
31299;BME280;17927;52.350;13.402;2022-10-26T08:08:24;101474.59;;;14.91;63.46
31299;BME280;17927;52.350;13.402;2022-10-26T08:10:49;101474.84;;;14.98;63.34
31299;BME280;17927;52.350;13.402;2022-10-26T08:13:16;101465.06;;;15.05;63.58
31299;BME280;17927;52.350;13.402;2022-10-26T08:15:41;101466.13;;;15.13;63.53
31299;BME280;17927;52.350;13.402;2022-10-26T08:18:07;101469.78;;;15.21;63.49
31299;BME280;17927;52.350;13.402;2022-10-26T08:20:32;101464.75;;;15.27;63.32
31299;BME280;17927;52.350;13.402;2022-10-26T08:22:58;101462.94;;;15.35;63.21
31299;BME280;17927;52.350;13.402;2022-10-26T08:25:24;101464.72;;;15.45;63.53
31299;BME280;17927;52.350;13.402;2022-10-26T08:27:49;101464.78;;;15.53;63.61
31299;BME280;17927;52.350;13.402;2022-10-26T08:30:15;101467.72;;;15.60;63.53
31299;BME280;17927;52.350;13.402;2022-10-26T08:32:40;101463.34;;;15.67;63.55
31299;BME280;17927;52.350;13.402;2022-10-26T08:35:07;101464.25;;;15.76;63.32
31299;BME280;17927;52.350;13.402;2022-10-26T08:37:32;101465.06;;;15.86;63.49
31299;BME280;17927;52.350;13.402;2022-10-26T08:39:57;101468.69;;;15.95;63.57
31299;BME280;17927;52.350;13.402;2022-10-26T08:42:27;101465.16;;;16.03;63.49
31299;BME280;17927;52.350;13.402;2022-10-26T08:45:04;101477.78;;;16.12;63.62
31299;BME280;17927;52.350;13.402;2022-10-26T08:47:38;101469.13;;;16.17;63.30
31299;BME280;17927;52.350;13.402;2022-10-26T08:50:17;101471.03;;;16.24;63.28
31299;BME280;17927;52.350;13.402;2022-10-26T08:52:52;101472.94;;;16.32;63.37
31299;BME280;17927;52.350;13.402;2022-10-26T08:55:25;101468.38;;;16.41;63.51
31299;BME280;17927;52.350;13.402;2022-10-26T08:57:53;101466.72;;;16.48;63.33
31299;BME280;17927;52.350;13.402;2022-10-26T09:00:21;101465.53;;;16.59;63.41
31299;BME280;17927;52.350;13.402;2022-10-26T09:02:51;101463.88;;;16.66;63.54
31299;BME280;17927;52.350;13.402;2022-10-26T09:05:31;101462.72;;;16.77;63.43
31299;BME280;17927;52.350;13.402;2022-10-26T09:11:15;101463.78;;;16.93;63.50
31299;BME280;17927;52.350;13.402;2022-10-26T09:13:58;101462.78;;;17.02;63.73
31299;BME280;17927;52.350;13.402;2022-10-26T09:16:44;101472.84;;;17.10;63.21
31299;BME280;17927;52.350;13.402;2022-10-26T09:22:25;101473.38;;;17.30;63.19
31299;BME280;17927;52.350;13.402;2022-10-26T09:24:55;101476.47;;;17.35;63.03
31299;BME280;17927;52.350;13.402;2022-10-26T09:27:27;101469.97;;;17.44;62.77
31299;BME280;17927;52.350;13.402;2022-10-26T09:29:55;101482.63;;;17.54;62.74
31299;BME280;17927;52.350;13.402;2022-10-26T09:32:36;101473.38;;;17.63;62.97
31299;BME280;17927;52.350;13.402;2022-10-26T09:35:09;101475.44;;;17.69;62.92
31299;BME280;17927;52.350;13.402;2022-10-26T09:37:41;101466.53;;;17.75;62.47
31299;BME280;17927;52.350;13.402;2022-10-26T09:40:17;101478.47;;;17.83;62.44
31299;BME280;17927;52.350;13.402;2022-10-26T09:42:47;101472.16;;;17.90;62.16
31299;BME280;17927;52.350;13.402;2022-10-26T09:45:19;101481.72;;;17.94;62.23
31299;BME280;17927;52.350;13.402;2022-10-26T09:47:50;101478.28;;;18.01;61.97
31299;BME280;17927;52.350;13.402;2022-10-26T09:50:22;101482.88;;;18.08;62.03
31299;BME280;17927;52.350;13.402;2022-10-26T09:52:48;101476.03;;;18.13;61.68
31299;BME280;17927;52.350;13.402;2022-10-26T09:55:14;101476.38;;;18.18;61.83
31299;BME280;17927;52.350;13.402;2022-10-26T09:57:43;101473.78;;;18.24;61.66
31299;BME280;17927;52.350;13.402;2022-10-26T10:00:17;101479.41;;;18.31;61.76
31299;BME280;17927;52.350;13.402;2022-10-26T10:02:45;101479.56;;;18.38;61.84
31299;BME280;17927;52.350;13.402;2022-10-26T10:05:31;101486.69;;;18.47;61.73
31299;BME280;17927;52.350;13.402;2022-10-26T10:10:55;101485.28;;;18.60;61.52
31299;BME280;17927;52.350;13.402;2022-10-26T10:13:21;101489.19;;;18.65;61.95
31299;BME280;17927;52.350;13.402;2022-10-26T10:15:51;101490.84;;;18.75;61.59
31299;BME280;17927;52.350;13.402;2022-10-26T10:18:19;101472.00;;;18.80;61.30
31299;BME280;17927;52.350;13.402;2022-10-26T10:20:53;101483.06;;;18.86;61.42
31299;BME280;17927;52.350;13.402;2022-10-26T10:23:29;101479.47;;;18.94;61.51
31299;BME280;17927;52.350;13.402;2022-10-26T10:26:08;101483.84;;;19.04;61.06
31299;BME280;17927;52.350;13.402;2022-10-26T10:28:39;101480.38;;;19.10;61.57
31299;BME280;17927;52.350;13.402;2022-10-26T10:31:17;101478.63;;;19.17;61.21
31299;BME280;17927;52.350;13.402;2022-10-26T10:33:43;101474.13;;;19.24;61.30
31299;BME280;17927;52.350;13.402;2022-10-26T10:36:14;101470.09;;;19.35;61.20
31299;BME280;17927;52.350;13.402;2022-10-26T10:38:43;101476.38;;;19.44;61.18
31299;BME280;17927;52.350;13.402;2022-10-26T10:41:28;101470.63;;;19.54;60.98
31299;BME280;17927;52.350;13.402;2022-10-26T10:44:17;101477.06;;;19.61;60.26
31299;BME280;17927;52.350;13.402;2022-10-26T10:46:45;101471.88;;;19.66;60.03
31299;BME280;17927;52.350;13.402;2022-10-26T10:49:24;101477.09;;;19.76;59.30
31299;BME280;17927;52.350;13.402;2022-10-26T10:51:50;101474.47;;;19.83;59.80
31299;BME280;17927;52.350;13.402;2022-10-26T10:54:32;101475.06;;;19.93;58.79
31299;BME280;17927;52.350;13.402;2022-10-26T10:57:17;101474.97;;;20.01;58.84
31299;BME280;17927;52.350;13.402;2022-10-26T11:00:07;101474.03;;;20.09;57.74
31299;BME280;17927;52.350;13.402;2022-10-26T11:02:56;101476.03;;;20.15;58.17
31299;BME280;17927;52.350;13.402;2022-10-26T11:08:29;101477.06;;;20.29;58.02
31299;BME280;17927;52.350;13.402;2022-10-26T11:11:43;101477.41;;;20.41;57.37
31299;BME280;17927;52.350;13.402;2022-10-26T11:14:21;101475.63;;;20.48;57.47
31299;BME280;17927;52.350;13.402;2022-10-26T11:16:54;101469.63;;;20.60;57.68
31299;BME280;17927;52.350;13.402;2022-10-26T11:19:29;101465.84;;;20.76;57.68
31299;BME280;17927;52.350;13.402;2022-10-26T11:21:56;101469.78;;;20.88;57.74
31299;BME280;17927;52.350;13.402;2022-10-26T11:24:32;101461.69;;;21.02;57.60
31299;BME280;17927;52.350;13.402;2022-10-26T11:27:11;101456.59;;;21.20;56.70
31299;BME280;17927;52.350;13.402;2022-10-26T11:30:01;101459.91;;;21.37;56.89
31299;BME280;17927;52.350;13.402;2022-10-26T11:38:22;101461.38;;;21.83;55.90
31299;BME280;17927;52.350;13.402;2022-10-26T11:40:54;101452.81;;;22.00;56.30
31299;BME280;17927;52.350;13.402;2022-10-26T11:46:10;101447.97;;;22.44;55.12
31299;BME280;17927;52.350;13.402;2022-10-26T11:48:53;101447.81;;;22.59;54.58
31299;BME280;17927;52.350;13.402;2022-10-26T11:53:54;101441.97;;;22.95;55.07
31299;BME280;17927;52.350;13.402;2022-10-26T11:56:30;101444.13;;;23.14;53.94
31299;BME280;17927;52.350;13.402;2022-10-26T11:58:58;101449.06;;;23.32;54.35
31299;BME280;17927;52.350;13.402;2022-10-26T12:01:24;101443.97;;;23.49;53.44
31299;BME280;17927;52.350;13.402;2022-10-26T12:03:53;101442.88;;;23.63;53.09
31299;BME280;17927;52.350;13.402;2022-10-26T12:06:24;101444.56;;;23.78;51.75
31299;BME280;17927;52.350;13.402;2022-10-26T12:09:12;101434.78;;;23.88;51.56
31299;BME280;17927;52.350;13.402;2022-10-26T12:11:47;101443.28;;;24.00;51.45
31299;BME280;17927;52.350;13.402;2022-10-26T12:19:40;101433.75;;;24.48;50.33
31299;BME280;17927;52.350;13.402;2022-10-26T12:22:10;101439.69;;;24.59;50.86
31299;BME280;17927;52.350;13.402;2022-10-26T12:24:42;101434.09;;;24.72;49.94
31299;BME280;17927;52.350;13.402;2022-10-26T12:27:33;101435.72;;;24.87;49.39
31299;BME280;17927;52.350;13.402;2022-10-26T12:35:38;101424.31;;;25.34;49.42
31299;BME280;17927;52.350;13.402;2022-10-26T12:40:48;101426.41;;;25.64;49.84
31299;BME280;17927;52.350;13.402;2022-10-26T12:43:39;101421.34;;;25.79;49.22
31299;BME280;17927;52.350;13.402;2022-10-26T12:48:45;101425.53;;;26.07;47.91
31299;BME280;17927;52.350;13.402;2022-10-26T12:56:29;101427.47;;;26.44;46.33
31299;BME280;17927;52.350;13.402;2022-10-26T12:59:11;101426.41;;;26.57;46.51
31299;BME280;17927;52.350;13.402;2022-10-26T13:01:49;101430.22;;;26.74;45.44
31299;BME280;17927;52.350;13.402;2022-10-26T13:04:40;101426.69;;;26.86;45.30
31299;BME280;17927;52.350;13.402;2022-10-26T13:07:22;101423.94;;;26.98;45.12
31299;BME280;17927;52.350;13.402;2022-10-26T13:09:54;101425.66;;;27.11;44.32
31299;BME280;17927;52.350;13.402;2022-10-26T13:12:20;101416.78;;;27.20;44.04
31299;BME280;17927;52.350;13.402;2022-10-26T13:14:56;101414.72;;;27.28;43.20
31299;BME280;17927;52.350;13.402;2022-10-26T13:17:25;101421.84;;;27.35;43.17
31299;BME280;17927;52.350;13.402;2022-10-26T13:19:55;101413.66;;;27.41;41.48
31299;BME280;17927;52.350;13.402;2022-10-26T13:22:22;101413.41;;;27.42;42.14
31299;BME280;17927;52.350;13.402;2022-10-26T13:24:57;101421.63;;;27.49;41.57
31299;BME280;17927;52.350;13.402;2022-10-26T13:32:34;101411.88;;;27.70;41.14
31299;BME280;17927;52.350;13.402;2022-10-26T13:35:01;101410.66;;;27.78;41.41
31299;BME280;17927;52.350;13.402;2022-10-26T13:37:30;101411.38;;;27.85;40.70
31299;BME280;17927;52.350;13.402;2022-10-26T13:39:57;101420.41;;;27.92;40.61
31299;BME280;17927;52.350;13.402;2022-10-26T13:42:32;101429.22;;;28.01;39.72
31299;BME280;17927;52.350;13.402;2022-10-26T13:45:06;101420.38;;;28.04;39.99
31299;BME280;17927;52.350;13.402;2022-10-26T13:50:26;101428.59;;;28.11;40.09
31299;BME280;17927;52.350;13.402;2022-10-26T13:53:00;101430.69;;;28.16;39.38
31299;BME280;17927;52.350;13.402;2022-10-26T13:55:32;101426.81;;;28.17;38.91
31299;BME280;17927;52.350;13.402;2022-10-26T14:00:29;101436.44;;;28.14;39.20
31299;BME280;17927;52.350;13.402;2022-10-26T14:02:54;101440.31;;;28.13;38.73
31299;BME280;17927;52.350;13.402;2022-10-26T14:05:20;101432.25;;;28.11;39.04
31299;BME280;17927;52.350;13.402;2022-10-26T14:07:51;101438.38;;;28.02;38.55
31299;BME280;17927;52.350;13.402;2022-10-26T14:10:33;101437.91;;;27.93;38.80